sensor_id;sensor_type;location;lat;lon;timestamp;temperature;humidity
39023;DHT22;25908;51.984;5.928;2023-04-24T00:00:09;11.30;99.90
39023;DHT22;25908;51.984;5.928;2023-04-24T00:02:36;11.30;99.90
39023;DHT22;25908;51.984;5.928;2023-04-24T00:05:05;11.30;99.90
39023;DHT22;25908;51.984;5.928;2023-04-24T00:07:31;11.30;99.90
39023;DHT22;25908;51.984;5.928;2023-04-24T00:09:57;11.30;99.90
39023;DHT22;25908;51.984;5.928;2023-04-24T00:12:24;11.30;99.90
39023;DHT22;25908;51.984;5.928;2023-04-24T00:14:50;11.30;99.90
39023;DHT22;25908;51.984;5.928;2023-04-24T00:17:16;11.30;99.90
39023;DHT22;25908;51.984;5.928;2023-04-24T00:19:45;11.40;99.90
39023;DHT22;25908;51.984;5.928;2023-04-24T00:22:11;11.40;99.90
39023;DHT22;25908;51.984;5.928;2023-04-24T00:24:39;11.40;99.90
39023;DHT22;25908;51.984;5.928;2023-04-24T00:27:04;11.40;99.90
39023;DHT22;25908;51.984;5.928;2023-04-24T00:29:30;11.30;99.90
39023;DHT22;25908;51.984;5.928;2023-04-24T00:31:56;11.30;99.90
39023;DHT22;25908;51.984;5.928;2023-04-24T00:34:22;11.20;99.90
39023;DHT22;25908;51.984;5.928;2023-04-24T00:36:47;11.20;99.90
39023;DHT22;25908;51.984;5.928;2023-04-24T00:39:20;11.30;99.90
39023;DHT22;25908;51.984;5.928;2023-04-24T00:41:46;11.30;99.90
39023;DHT22;25908;51.984;5.928;2023-04-24T00:44:14;11.30;99.90
39023;DHT22;25908;51.984;5.928;2023-04-24T00:46:40;11.30;99.90
39023;DHT22;25908;51.984;5.928;2023-04-24T00:49:06;11.30;99.90
39023;DHT22;25908;51.984;5.928;2023-04-24T00:51:32;11.30;99.90
39023;DHT22;25908;51.984;5.928;2023-04-24T00:53:58;11.30;99.90
39023;DHT22;25908;51.984;5.928;2023-04-24T00:56:24;11.30;99.90
39023;DHT22;25908;51.984;5.928;2023-04-24T00:58:51;11.30;99.90
39023;DHT22;25908;51.984;5.928;2023-04-24T01:01:20;11.30;99.90
39023;DHT22;25908;51.984;5.928;2023-04-24T01:03:46;11.20;99.90
39023;DHT22;25908;51.984;5.928;2023-04-24T01:06:14;11.20;99.90
39023;DHT22;25908;51.984;5.928;2023-04-24T01:08:40;11.20;99.90
39023;DHT22;25908;51.984;5.928;2023-04-24T01:11:06;11.30;99.90
39023;DHT22;25908;51.984;5.928;2023-04-24T01:13:33;11.30;99.90
39023;DHT22;25908;51.984;5.928;2023-04-24T01:15:59;11.40;99.90
39023;DHT22;25908;51.984;5.928;2023-04-24T01:18:25;11.30;99.90
39023;DHT22;25908;51.984;5.928;2023-04-24T01:20:54;11.30;99.90
39023;DHT22;25908;51.984;5.928;2023-04-24T01:23:22;11.30;99.90
39023;DHT22;25908;51.984;5.928;2023-04-24T01:25:48;11.20;99.90
39023;DHT22;25908;51.984;5.928;2023-04-24T01:28:15;11.20;99.90
39023;DHT22;25908;51.984;5.928;2023-04-24T01:30:41;11.20;99.90
39023;DHT22;25908;51.984;5.928;2023-04-24T01:33:07;11.20;99.90
39023;DHT22;25908;51.984;5.928;2023-04-24T01:35:33;11.20;99.90
39023;DHT22;25908;51.984;5.928;2023-04-24T01:37:58;11.30;99.90
39023;DHT22;25908;51.984;5.928;2023-04-24T01:40:24;11.30;99.90
39023;DHT22;25908;51.984;5.928;2023-04-24T01:42:51;11.30;99.90
39023;DHT22;25908;51.984;5.928;2023-04-24T01:45:16;11.30;99.90
39023;DHT22;25908;51.984;5.928;2023-04-24T01:47:42;11.40;99.90
39023;DHT22;25908;51.984;5.928;2023-04-24T01:50:09;11.40;99.90
39023;DHT22;25908;51.984;5.928;2023-04-24T01:52:35;11.40;99.90
39023;DHT22;25908;51.984;5.928;2023-04-24T01:55:05;11.40;99.90
39023;DHT22;25908;51.984;5.928;2023-04-24T01:57:31;11.40;99.90
39023;DHT22;25908;51.984;5.928;2023-04-24T01:59:57;11.40;99.90
39023;DHT22;25908;51.984;5.928;2023-04-24T02:02:23;11.40;99.90
39023;DHT22;25908;51.984;5.928;2023-04-24T02:04:56;11.40;99.90
39023;DHT22;25908;51.984;5.928;2023-04-24T02:07:22;11.40;99.90
39023;DHT22;25908;51.984;5.928;2023-04-24T02:09:48;11.50;99.90
39023;DHT22;25908;51.984;5.928;2023-04-24T02:12:15;11.50;99.90
39023;DHT22;25908;51.984;5.928;2023-04-24T02:14:41;11.50;99.90
39023;DHT22;25908;51.984;5.928;2023-04-24T02:17:07;11.40;99.90
39023;DHT22;25908;51.984;5.928;2023-04-24T02:19:35;11.50;99.90
39023;DHT22;25908;51.984;5.928;2023-04-24T02:22:00;11.40;99.90
39023;DHT22;25908;51.984;5.928;2023-04-24T02:24:26;11.40;99.90
39023;DHT22;25908;51.984;5.928;2023-04-24T02:26:51;11.40;99.90
39023;DHT22;25908;51.984;5.928;2023-04-24T02:29:17;11.40;99.90
39023;DHT22;25908;51.984;5.928;2023-04-24T02:31:43;11.30;99.90
39023;DHT22;25908;51.984;5.928;2023-04-24T02:34:09;11.20;99.90
39023;DHT22;25908;51.984;5.928;2023-04-24T02:36:34;11.20;99.90
39023;DHT22;25908;51.984;5.928;2023-04-24T02:39:00;11.20;99.90
39023;DHT22;25908;51.984;5.928;2023-04-24T02:41:26;11.20;99.90
39023;DHT22;25908;51.984;5.928;2023-04-24T02:44:00;11.20;99.90
39023;DHT22;25908;51.984;5.928;2023-04-24T02:46:26;11.10;99.90
39023;DHT22;25908;51.984;5.928;2023-04-24T02:48:51;11.10;99.90
39023;DHT22;25908;51.984;5.928;2023-04-24T02:51:17;11.20;99.90
39023;DHT22;25908;51.984;5.928;2023-04-24T02:53:43;11.10;99.90
39023;DHT22;25908;51.984;5.928;2023-04-24T02:56:08;11.10;99.90
39023;DHT22;25908;51.984;5.928;2023-04-24T02:58:37;11.10;99.90
39023;DHT22;25908;51.984;5.928;2023-04-24T03:01:03;11.00;99.90
39023;DHT22;25908;51.984;5.928;2023-04-24T03:03:28;11.00;99.90
39023;DHT22;25908;51.984;5.928;2023-04-24T03:05:54;11.00;99.90
39023;DHT22;25908;51.984;5.928;2023-04-24T03:08:22;11.00;99.90
39023;DHT22;25908;51.984;5.928;2023-04-24T03:10:48;11.00;99.90
39023;DHT22;25908;51.984;5.928;2023-04-24T03:13:13;11.00;99.90
39023;DHT22;25908;51.984;5.928;2023-04-24T03:15:40;11.00;99.90
39023;DHT22;25908;51.984;5.928;2023-04-24T03:18:06;11.10;99.90
39023;DHT22;25908;51.984;5.928;2023-04-24T03:20:31;11.10;99.90
39023;DHT22;25908;51.984;5.928;2023-04-24T03:22:57;11.20;99.90
39023;DHT22;25908;51.984;5.928;2023-04-24T03:25:22;11.20;99.90
39023;DHT22;25908;51.984;5.928;2023-04-24T03:27:48;11.20;99.90
39023;DHT22;25908;51.984;5.928;2023-04-24T03:30:14;11.20;99.90
39023;DHT22;25908;51.984;5.928;2023-04-24T03:32:41;11.20;99.90
39023;DHT22;25908;51.984;5.928;2023-04-24T03:35:07;11.20;99.90
39023;DHT22;25908;51.984;5.928;2023-04-24T03:37:34;11.20;99.90
39023;DHT22;25908;51.984;5.928;2023-04-24T03:40:00;11.20;99.90
39023;DHT22;25908;51.984;5.928;2023-04-24T03:42:26;11.20;99.90
39023;DHT22;25908;51.984;5.928;2023-04-24T03:44:51;11.10;99.90
39023;DHT22;25908;51.984;5.928;2023-04-24T03:47:17;11.10;99.90
39023;DHT22;25908;51.984;5.928;2023-04-24T03:49:42;11.10;99.90
39023;DHT22;25908;51.984;5.928;2023-04-24T03:52:08;11.10;99.90
39023;DHT22;25908;51.984;5.928;2023-04-24T03:54:34;11.10;99.90
39023;DHT22;25908;51.984;5.928;2023-04-24T03:56:59;11.10;99.90
39023;DHT22;25908;51.984;5.928;2023-04-24T03:59:26;11.10;99.90
39023;DHT22;25908;51.984;5.928;2023-04-24T04:01:52;11.10;99.90
39023;DHT22;25908;51.984;5.928;2023-04-24T04:04:17;11.00;99.90
39023;DHT22;25908;51.984;5.928;2023-04-24T04:06:43;11.10;99.90
39023;DHT22;25908;51.984;5.928;2023-04-24T04:09:09;11.10;99.90
39023;DHT22;25908;51.984;5.928;2023-04-24T04:11:36;11.20;99.90
39023;DHT22;25908;51.984;5.928;2023-04-24T04:14:01;11.20;99.90
39023;DHT22;25908;51.984;5.928;2023-04-24T04:16:27;11.10;99.90
39023;DHT22;25908;51.984;5.928;2023-04-24T04:18:53;11.10;99.90
39023;DHT22;25908;51.984;5.928;2023-04-24T04:21:18;11.00;99.90
39023;DHT22;25908;51.984;5.928;2023-04-24T04:23:44;10.90;99.90
39023;DHT22;25908;51.984;5.928;2023-04-24T04:26:11;10.90;99.90
39023;DHT22;25908;51.984;5.928;2023-04-24T04:28:38;10.90;99.90
39023;DHT22;25908;51.984;5.928;2023-04-24T04:31:04;10.90;99.90
39023;DHT22;25908;51.984;5.928;2023-04-24T04:33:30;10.90;99.90
39023;DHT22;25908;51.984;5.928;2023-04-24T04:35:56;10.90;99.90
39023;DHT22;25908;51.984;5.928;2023-04-24T04:38:22;10.90;99.90
39023;DHT22;25908;51.984;5.928;2023-04-24T04:40:48;10.90;99.90
39023;DHT22;25908;51.984;5.928;2023-04-24T04:43:14;10.90;99.90
39023;DHT22;25908;51.984;5.928;2023-04-24T04:45:40;10.90;99.90
39023;DHT22;25908;51.984;5.928;2023-04-24T04:48:08;10.90;99.90
39023;DHT22;25908;51.984;5.928;2023-04-24T04:50:35;11.00;99.90
39023;DHT22;25908;51.984;5.928;2023-04-24T04:53:01;10.90;99.90
39023;DHT22;25908;51.984;5.928;2023-04-24T04:55:28;11.00;99.90
39023;DHT22;25908;51.984;5.928;2023-04-24T04:57:53;11.00;99.90
39023;DHT22;25908;51.984;5.928;2023-04-24T05:00:20;10.90;99.90
39023;DHT22;25908;51.984;5.928;2023-04-24T05:02:46;10.90;99.90
39023;DHT22;25908;51.984;5.928;2023-04-24T05:05:12;10.90;99.90
39023;DHT22;25908;51.984;5.928;2023-04-24T05:07:37;10.90;99.90
39023;DHT22;25908;51.984;5.928;2023-04-24T05:10:03;10.90;99.90
39023;DHT22;25908;51.984;5.928;2023-04-24T05:12:29;10.90;99.90
39023;DHT22;25908;51.984;5.928;2023-04-24T05:14:55;10.90;99.90
39023;DHT22;25908;51.984;5.928;2023-04-24T05:17:20;10.90;99.90
39023;DHT22;25908;51.984;5.928;2023-04-24T05:19:46;10.90;99.90
39023;DHT22;25908;51.984;5.928;2023-04-24T05:22:11;10.90;99.90
39023;DHT22;25908;51.984;5.928;2023-04-24T05:24:38;10.80;99.90
39023;DHT22;25908;51.984;5.928;2023-04-24T05:27:04;10.80;99.90
39023;DHT22;25908;51.984;5.928;2023-04-24T05:29:32;10.80;99.90
39023;DHT22;25908;51.984;5.928;2023-04-24T05:31:59;10.70;99.90
39023;DHT22;25908;51.984;5.928;2023-04-24T05:34:25;10.90;99.90
39023;DHT22;25908;51.984;5.928;2023-04-24T05:36:51;10.90;99.90
39023;DHT22;25908;51.984;5.928;2023-04-24T05:39:17;10.90;99.90
39023;DHT22;25908;51.984;5.928;2023-04-24T05:41:43;10.90;99.90
39023;DHT22;25908;51.984;5.928;2023-04-24T05:44:09;10.90;99.90
39023;DHT22;25908;51.984;5.928;2023-04-24T05:46:34;10.90;99.90
39023;DHT22;25908;51.984;5.928;2023-04-24T05:49:00;11.00;99.90
39023;DHT22;25908;51.984;5.928;2023-04-24T05:51:26;11.00;99.90
39023;DHT22;25908;51.984;5.928;2023-04-24T05:53:52;11.10;99.90
39023;DHT22;25908;51.984;5.928;2023-04-24T05:56:18;11.10;99.90
39023;DHT22;25908;51.984;5.928;2023-04-24T05:58:44;11.10;99.90
39023;DHT22;25908;51.984;5.928;2023-04-24T06:01:10;11.10;99.90
39023;DHT22;25908;51.984;5.928;2023-04-24T06:03:37;11.10;99.90
39023;DHT22;25908;51.984;5.928;2023-04-24T06:06:06;11.20;99.90
39023;DHT22;25908;51.984;5.928;2023-04-24T06:08:31;11.20;99.90
39023;DHT22;25908;51.984;5.928;2023-04-24T06:10:58;11.10;99.90
39023;DHT22;25908;51.984;5.928;2023-04-24T06:13:23;11.20;99.90
39023;DHT22;25908;51.984;5.928;2023-04-24T06:15:49;11.20;99.90
39023;DHT22;25908;51.984;5.928;2023-04-24T06:18:15;11.20;99.90
39023;DHT22;25908;51.984;5.928;2023-04-24T06:20:41;11.30;99.90
39023;DHT22;25908;51.984;5.928;2023-04-24T06:23:07;11.30;99.90
39023;DHT22;25908;51.984;5.928;2023-04-24T06:25:32;11.30;99.90
39023;DHT22;25908;51.984;5.928;2023-04-24T06:27:58;11.30;99.90
39023;DHT22;25908;51.984;5.928;2023-04-24T06:30:24;11.30;99.90
39023;DHT22;25908;51.984;5.928;2023-04-24T06:32:50;11.40;99.90
39023;DHT22;25908;51.984;5.928;2023-04-24T06:35:16;11.30;99.90
39023;DHT22;25908;51.984;5.928;2023-04-24T06:37:42;11.30;99.90
39023;DHT22;25908;51.984;5.928;2023-04-24T06:40:09;11.30;99.90
39023;DHT22;25908;51.984;5.928;2023-04-24T06:42:36;11.30;99.90
39023;DHT22;25908;51.984;5.928;2023-04-24T06:45:01;11.30;99.90
39023;DHT22;25908;51.984;5.928;2023-04-24T06:47:27;11.30;99.90
39023;DHT22;25908;51.984;5.928;2023-04-24T06:49:53;11.30;99.90
39023;DHT22;25908;51.984;5.928;2023-04-24T06:52:19;11.30;99.90
39023;DHT22;25908;51.984;5.928;2023-04-24T06:54:45;11.40;99.90
39023;DHT22;25908;51.984;5.928;2023-04-24T06:57:10;11.40;99.90
39023;DHT22;25908;51.984;5.928;2023-04-24T06:59:36;11.40;99.90
39023;DHT22;25908;51.984;5.928;2023-04-24T07:02:02;11.50;99.90
39023;DHT22;25908;51.984;5.928;2023-04-24T07:04:28;11.60;99.90
39023;DHT22;25908;51.984;5.928;2023-04-24T07:06:54;11.60;99.90
39023;DHT22;25908;51.984;5.928;2023-04-24T07:09:24;11.60;99.90
39023;DHT22;25908;51.984;5.928;2023-04-24T07:11:51;11.60;99.90
39023;DHT22;25908;51.984;5.928;2023-04-24T07:14:17;11.60;99.90
39023;DHT22;25908;51.984;5.928;2023-04-24T07:16:43;11.70;99.90
39023;DHT22;25908;51.984;5.928;2023-04-24T07:19:09;11.70;99.90
39023;DHT22;25908;51.984;5.928;2023-04-24T07:21:35;11.70;99.90
39023;DHT22;25908;51.984;5.928;2023-04-24T07:24:01;11.60;99.90
39023;DHT22;25908;51.984;5.928;2023-04-24T07:26:29;11.70;99.90
39023;DHT22;25908;51.984;5.928;2023-04-24T07:28:55;11.70;99.90
39023;DHT22;25908;51.984;5.928;2023-04-24T07:31:21;11.70;99.90
39023;DHT22;25908;51.984;5.928;2023-04-24T07:33:47;11.60;99.90
39023;DHT22;25908;51.984;5.928;2023-04-24T07:36:13;11.60;99.90
39023;DHT22;25908;51.984;5.928;2023-04-24T07:38:43;11.60;99.90
39023;DHT22;25908;51.984;5.928;2023-04-24T07:41:09;11.50;99.90
39023;DHT22;25908;51.984;5.928;2023-04-24T07:43:35;11.60;99.90
39023;DHT22;25908;51.984;5.928;2023-04-24T07:46:00;11.50;99.90
39023;DHT22;25908;51.984;5.928;2023-04-24T07:48:26;11.40;99.90
39023;DHT22;25908;51.984;5.928;2023-04-24T07:50:52;11.40;99.90
39023;DHT22;25908;51.984;5.928;2023-04-24T07:53:18;11.30;99.90
39023;DHT22;25908;51.984;5.928;2023-04-24T07:55:44;11.30;99.90
39023;DHT22;25908;51.984;5.928;2023-04-24T07:58:10;11.20;99.90
39023;DHT22;25908;51.984;5.928;2023-04-24T08:00:35;11.10;99.90
39023;DHT22;25908;51.984;5.928;2023-04-24T08:03:02;11.00;99.90
39023;DHT22;25908;51.984;5.928;2023-04-24T08:05:28;11.10;99.90
39023;DHT22;25908;51.984;5.928;2023-04-24T08:08:00;11.10;99.90
39023;DHT22;25908;51.984;5.928;2023-04-24T08:10:25;11.10;99.90
39023;DHT22;25908;51.984;5.928;2023-04-24T08:12:53;11.10;99.90
39023;DHT22;25908;51.984;5.928;2023-04-24T08:15:20;11.00;99.90
39023;DHT22;25908;51.984;5.928;2023-04-24T08:17:47;11.00;99.90
39023;DHT22;25908;51.984;5.928;2023-04-24T08:20:15;11.00;99.90
39023;DHT22;25908;51.984;5.928;2023-04-24T08:22:41;11.00;99.90
39023;DHT22;25908;51.984;5.928;2023-04-24T08:25:08;11.00;99.90
39023;DHT22;25908;51.984;5.928;2023-04-24T08:27:34;11.00;99.90
39023;DHT22;25908;51.984;5.928;2023-04-24T08:30:03;10.90;99.90
39023;DHT22;25908;51.984;5.928;2023-04-24T08:32:29;10.90;99.90
39023;DHT22;25908;51.984;5.928;2023-04-24T08:34:55;10.90;99.90
39023;DHT22;25908;51.984;5.928;2023-04-24T08:37:26;10.90;99.90
39023;DHT22;25908;51.984;5.928;2023-04-24T08:39:53;10.90;99.90
39023;DHT22;25908;51.984;5.928;2023-04-24T08:42:19;10.90;99.90
39023;DHT22;25908;51.984;5.928;2023-04-24T08:44:47;10.90;99.90
39023;DHT22;25908;51.984;5.928;2023-04-24T08:47:16;10.90;99.90
39023;DHT22;25908;51.984;5.928;2023-04-24T08:49:43;10.90;99.90
39023;DHT22;25908;51.984;5.928;2023-04-24T08:52:09;10.90;99.90
39023;DHT22;25908;51.984;5.928;2023-04-24T08:54:38;10.90;99.90
39023;DHT22;25908;51.984;5.928;2023-04-24T08:57:04;10.90;99.90
39023;DHT22;25908;51.984;5.928;2023-04-24T08:59:33;10.90;99.90
39023;DHT22;25908;51.984;5.928;2023-04-24T09:02:02;10.90;99.90
39023;DHT22;25908;51.984;5.928;2023-04-24T09:04:29;10.90;99.90
39023;DHT22;25908;51.984;5.928;2023-04-24T09:06:56;10.80;99.90
39023;DHT22;25908;51.984;5.928;2023-04-24T09:09:23;10.80;99.90
39023;DHT22;25908;51.984;5.928;2023-04-24T09:11:51;10.80;99.90
39023;DHT22;25908;51.984;5.928;2023-04-24T09:14:19;10.80;99.90
39023;DHT22;25908;51.984;5.928;2023-04-24T09:16:46;10.70;99.90
39023;DHT22;25908;51.984;5.928;2023-04-24T09:19:13;10.70;99.90
39023;DHT22;25908;51.984;5.928;2023-04-24T09:21:38;10.80;99.90
39023;DHT22;25908;51.984;5.928;2023-04-24T09:24:07;10.80;99.90
39023;DHT22;25908;51.984;5.928;2023-04-24T09:26:35;10.80;99.90
39023;DHT22;25908;51.984;5.928;2023-04-24T09:29:01;10.80;99.90
39023;DHT22;25908;51.984;5.928;2023-04-24T09:31:29;10.90;99.90
39023;DHT22;25908;51.984;5.928;2023-04-24T09:34:01;10.80;99.90
39023;DHT22;25908;51.984;5.928;2023-04-24T09:36:30;10.90;99.90
39023;DHT22;25908;51.984;5.928;2023-04-24T09:39:01;10.90;99.90
39023;DHT22;25908;51.984;5.928;2023-04-24T09:41:28;11.00;99.90
39023;DHT22;25908;51.984;5.928;2023-04-24T09:43:57;11.00;99.90
39023;DHT22;25908;51.984;5.928;2023-04-24T09:46:30;11.00;99.90
39023;DHT22;25908;51.984;5.928;2023-04-24T09:48:57;11.00;99.90
39023;DHT22;25908;51.984;5.928;2023-04-24T09:51:34;11.00;99.90
39023;DHT22;25908;51.984;5.928;2023-04-24T09:54:02;11.00;99.90
39023;DHT22;25908;51.984;5.928;2023-04-24T09:56:29;11.10;99.90
39023;DHT22;25908;51.984;5.928;2023-04-24T09:59:07;11.20;99.90
39023;DHT22;25908;51.984;5.928;2023-04-24T10:01:33;11.20;99.90
39023;DHT22;25908;51.984;5.928;2023-04-24T10:03:59;11.30;99.90
39023;DHT22;25908;51.984;5.928;2023-04-24T10:06:33;11.40;99.90
39023;DHT22;25908;51.984;5.928;2023-04-24T10:09:00;11.40;99.90
39023;DHT22;25908;51.984;5.928;2023-04-24T10:11:27;11.60;99.90
39023;DHT22;25908;51.984;5.928;2023-04-24T10:13:53;11.60;99.90
39023;DHT22;25908;51.984;5.928;2023-04-24T10:16:20;11.80;99.90
39023;DHT22;25908;51.984;5.928;2023-04-24T10:18:48;11.80;99.90
39023;DHT22;25908;51.984;5.928;2023-04-24T10:21:14;12.00;99.90
39023;DHT22;25908;51.984;5.928;2023-04-24T10:23:42;12.10;99.90
39023;DHT22;25908;51.984;5.928;2023-04-24T10:26:09;12.30;99.90
39023;DHT22;25908;51.984;5.928;2023-04-24T10:28:36;12.50;99.90
39023;DHT22;25908;51.984;5.928;2023-04-24T10:31:02;12.80;99.90
39023;DHT22;25908;51.984;5.928;2023-04-24T10:33:29;13.20;99.90
39023;DHT22;25908;51.984;5.928;2023-04-24T10:35:56;13.60;99.90
39023;DHT22;25908;51.984;5.928;2023-04-24T10:38:25;13.80;99.90
39023;DHT22;25908;51.984;5.928;2023-04-24T10:40:57;13.90;99.90
39023;DHT22;25908;51.984;5.928;2023-04-24T10:43:23;13.80;99.90
39023;DHT22;25908;51.984;5.928;2023-04-24T10:46:03;13.70;99.90
39023;DHT22;25908;51.984;5.928;2023-04-24T10:48:29;13.50;99.90
39023;DHT22;25908;51.984;5.928;2023-04-24T10:50:55;13.50;99.90
39023;DHT22;25908;51.984;5.928;2023-04-24T10:53:22;13.40;99.90
39023;DHT22;25908;51.984;5.928;2023-04-24T10:55:49;13.20;99.90
39023;DHT22;25908;51.984;5.928;2023-04-24T10:58:16;13.20;99.90
39023;DHT22;25908;51.984;5.928;2023-04-24T11:00:43;13.10;99.90
39023;DHT22;25908;51.984;5.928;2023-04-24T11:03:29;12.90;99.90
39023;DHT22;25908;51.984;5.928;2023-04-24T11:06:04;12.80;99.90
39023;DHT22;25908;51.984;5.928;2023-04-24T11:08:43;12.80;99.90
39023;DHT22;25908;51.984;5.928;2023-04-24T11:11:13;12.90;99.90
39023;DHT22;25908;51.984;5.928;2023-04-24T11:22:01;12.60;99.90
39023;DHT22;25908;51.984;5.928;2023-04-24T11:35:14;12.80;99.90
39023;DHT22;25908;51.984;5.928;2023-04-24T11:37:42;12.70;99.90
39023;DHT22;25908;51.984;5.928;2023-04-24T11:40:11;12.90;99.90
39023;DHT22;25908;51.984;5.928;2023-04-24T11:42:44;12.60;99.90
39023;DHT22;25908;51.984;5.928;2023-04-24T11:45:17;12.60;99.90
39023;DHT22;25908;51.984;5.928;2023-04-24T11:47:43;12.60;99.90
39023;DHT22;25908;51.984;5.928;2023-04-24T11:50:11;12.70;99.90
39023;DHT22;25908;51.984;5.928;2023-04-24T11:52:39;12.70;99.90
39023;DHT22;25908;51.984;5.928;2023-04-24T11:57:53;12.80;99.90
39023;DHT22;25908;51.984;5.928;2023-04-24T12:00:23;12.80;99.90
39023;DHT22;25908;51.984;5.928;2023-04-24T12:02:50;12.70;99.90
39023;DHT22;25908;51.984;5.928;2023-04-24T12:05:24;12.60;99.90
39023;DHT22;25908;51.984;5.928;2023-04-24T12:07:49;12.60;99.90
39023;DHT22;25908;51.984;5.928;2023-04-24T12:10:25;12.60;99.90
39023;DHT22;25908;51.984;5.928;2023-04-24T12:12:52;12.50;99.90
39023;DHT22;25908;51.984;5.928;2023-04-24T12:15:21;12.40;99.90
39023;DHT22;25908;51.984;5.928;2023-04-24T12:17:48;12.40;99.90
39023;DHT22;25908;51.984;5.928;2023-04-24T12:20:15;12.30;99.90
39023;DHT22;25908;51.984;5.928;2023-04-24T12:22:50;12.30;99.90
39023;DHT22;25908;51.984;5.928;2023-04-24T12:25:17;12.20;99.90
39023;DHT22;25908;51.984;5.928;2023-04-24T12:27:51;12.20;99.90
39023;DHT22;25908;51.984;5.928;2023-04-24T12:30:18;12.30;99.90
39023;DHT22;25908;51.984;5.928;2023-04-24T12:32:49;12.40;99.90
39023;DHT22;25908;51.984;5.928;2023-04-24T12:35:22;12.50;99.90
39023;DHT22;25908;51.984;5.928;2023-04-24T12:37:48;12.50;99.90
39023;DHT22;25908;51.984;5.928;2023-04-24T12:40:16;12.60;99.90
39023;DHT22;25908;51.984;5.928;2023-04-24T12:45:09;12.80;99.90
39023;DHT22;25908;51.984;5.928;2023-04-24T12:47:35;12.90;99.90
39023;DHT22;25908;51.984;5.928;2023-04-24T12:50:02;13.00;99.90
39023;DHT22;25908;51.984;5.928;2023-04-24T12:52:29;13.00;99.90
39023;DHT22;25908;51.984;5.928;2023-04-24T12:54:56;13.00;99.90
39023;DHT22;25908;51.984;5.928;2023-04-24T12:57:23;13.00;99.90
39023;DHT22;25908;51.984;5.928;2023-04-24T12:59:48;13.00;99.90
39023;DHT22;25908;51.984;5.928;2023-04-24T13:02:14;12.90;99.90
39023;DHT22;25908;51.984;5.928;2023-04-24T13:04:46;12.90;99.90
39023;DHT22;25908;51.984;5.928;2023-04-24T13:07:15;12.90;99.90
39023;DHT22;25908;51.984;5.928;2023-04-24T13:09:42;13.00;99.90
39023;DHT22;25908;51.984;5.928;2023-04-24T13:12:09;13.00;99.90
39023;DHT22;25908;51.984;5.928;2023-04-24T13:14:35;13.00;99.90
39023;DHT22;25908;51.984;5.928;2023-04-24T13:17:00;13.00;99.90
39023;DHT22;25908;51.984;5.928;2023-04-24T13:19:27;13.10;99.90
39023;DHT22;25908;51.984;5.928;2023-04-24T13:21:56;13.00;99.90
39023;DHT22;25908;51.984;5.928;2023-04-24T13:24:23;13.00;99.90
39023;DHT22;25908;51.984;5.928;2023-04-24T13:26:52;13.00;99.90
39023;DHT22;25908;51.984;5.928;2023-04-24T13:29:18;12.90;99.90
39023;DHT22;25908;51.984;5.928;2023-04-24T13:31:44;12.90;99.90
39023;DHT22;25908;51.984;5.928;2023-04-24T13:34:10;12.90;99.90
39023;DHT22;25908;51.984;5.928;2023-04-24T13:36:35;12.70;99.90
39023;DHT22;25908;51.984;5.928;2023-04-24T13:39:02;12.80;99.90
39023;DHT22;25908;51.984;5.928;2023-04-24T13:41:30;12.70;99.90
39023;DHT22;25908;51.984;5.928;2023-04-24T13:43:55;12.60;99.90
39023;DHT22;25908;51.984;5.928;2023-04-24T13:46:21;12.60;99.90
39023;DHT22;25908;51.984;5.928;2023-04-24T13:48:47;12.70;99.90
39023;DHT22;25908;51.984;5.928;2023-04-24T13:51:12;12.60;99.90
39023;DHT22;25908;51.984;5.928;2023-04-24T13:53:39;12.60;99.90
39023;DHT22;25908;51.984;5.928;2023-04-24T13:56:06;12.60;99.90
39023;DHT22;25908;51.984;5.928;2023-04-24T13:58:32;12.60;99.90
39023;DHT22;25908;51.984;5.928;2023-04-24T14:00:58;12.60;99.90
39023;DHT22;25908;51.984;5.928;2023-04-24T14:03:23;12.70;99.90
39023;DHT22;25908;51.984;5.928;2023-04-24T14:05:49;12.60;99.90
39023;DHT22;25908;51.984;5.928;2023-04-24T14:08:15;12.60;99.90
39023;DHT22;25908;51.984;5.928;2023-04-24T14:10:40;12.60;99.90
39023;DHT22;25908;51.984;5.928;2023-04-24T14:13:06;12.70;99.90
39023;DHT22;25908;51.984;5.928;2023-04-24T14:15:32;12.70;99.90
39023;DHT22;25908;51.984;5.928;2023-04-24T14:17:57;12.70;99.90
39023;DHT22;25908;51.984;5.928;2023-04-24T14:20:24;12.70;99.50
39023;DHT22;25908;51.984;5.928;2023-04-24T14:22:49;12.80;99.40
39023;DHT22;25908;51.984;5.928;2023-04-24T14:25:15;12.80;99.30
39023;DHT22;25908;51.984;5.928;2023-04-24T14:27:41;12.80;99.00
39023;DHT22;25908;51.984;5.928;2023-04-24T14:30:07;12.90;98.70
39023;DHT22;25908;51.984;5.928;2023-04-24T14:32:33;12.90;98.40
39023;DHT22;25908;51.984;5.928;2023-04-24T14:34:58;13.00;98.30
39023;DHT22;25908;51.984;5.928;2023-04-24T14:37:24;13.00;98.30
39023;DHT22;25908;51.984;5.928;2023-04-24T14:39:50;13.10;97.50
39023;DHT22;25908;51.984;5.928;2023-04-24T14:42:15;13.10;97.60
39023;DHT22;25908;51.984;5.928;2023-04-24T14:44:42;13.10;97.50
39023;DHT22;25908;51.984;5.928;2023-04-24T14:47:09;13.00;97.30
39023;DHT22;25908;51.984;5.928;2023-04-24T14:49:34;12.90;96.90
39023;DHT22;25908;51.984;5.928;2023-04-24T14:52:00;12.80;96.90
39023;DHT22;25908;51.984;5.928;2023-04-24T14:54:28;12.80;96.70
39023;DHT22;25908;51.984;5.928;2023-04-24T14:56:54;12.70;96.90
39023;DHT22;25908;51.984;5.928;2023-04-24T14:59:22;12.80;96.90
39023;DHT22;25908;51.984;5.928;2023-04-24T15:01:48;12.70;96.90
39023;DHT22;25908;51.984;5.928;2023-04-24T15:04:14;12.80;96.50
39023;DHT22;25908;51.984;5.928;2023-04-24T15:06:40;12.70;96.20
39023;DHT22;25908;51.984;5.928;2023-04-24T15:09:06;12.80;96.20
39023;DHT22;25908;51.984;5.928;2023-04-24T15:11:32;12.80;95.80
39023;DHT22;25908;51.984;5.928;2023-04-24T15:13:57;12.80;95.80
39023;DHT22;25908;51.984;5.928;2023-04-24T15:16:23;12.80;95.90
39023;DHT22;25908;51.984;5.928;2023-04-24T15:18:49;12.90;95.80
39023;DHT22;25908;51.984;5.928;2023-04-24T15:21:15;12.90;95.80
39023;DHT22;25908;51.984;5.928;2023-04-24T15:23:40;12.90;95.80
39023;DHT22;25908;51.984;5.928;2023-04-24T15:26:06;12.80;95.60
39023;DHT22;25908;51.984;5.928;2023-04-24T15:28:31;12.90;95.30
39023;DHT22;25908;51.984;5.928;2023-04-24T15:30:57;12.70;95.20
39023;DHT22;25908;51.984;5.928;2023-04-24T15:33:23;12.80;94.90
39023;DHT22;25908;51.984;5.928;2023-04-24T15:35:49;12.80;94.90
39023;DHT22;25908;51.984;5.928;2023-04-24T15:38:14;12.80;94.90
39023;DHT22;25908;51.984;5.928;2023-04-24T15:40:40;12.70;94.80
39023;DHT22;25908;51.984;5.928;2023-04-24T15:43:05;12.80;94.80
39023;DHT22;25908;51.984;5.928;2023-04-24T15:45:32;12.80;94.30
39023;DHT22;25908;51.984;5.928;2023-04-24T15:47:58;12.70;94.40
39023;DHT22;25908;51.984;5.928;2023-04-24T15:50:23;12.80;94.40